Time;durP1;ratioP1;P1;durP2;ratioP2;P2;SDS_P1;SDS_P2;PMS_P1;PMS_P2;Temp;Humidity;BMP_temperature;BMP_pressure;BME280_temperature;BME280_humidity;BME280_pressure;Samples;Min_cycle;Max_cycle;Signal;HPM_P1;HPM_P2
2021/06/12 00:00:07;;;;;;;4.97;4.40;;;;;;;18.54;66.35;99529.03;5001344;28;20226;-79
2021/06/12 00:02:34;;;;;;;4.90;4.50;;;;;;;18.56;66.35;99528.78;4997828;28;20703;-80
2021/06/12 00:05:01;;;;;;;4.53;4.23;;;;;;;18.61;66.08;99526.88;5015185;28;20227;-84
2021/06/12 00:07:28;;;;;;;4.63;4.30;;;;;;;18.63;66.29;99527.41;4998606;28;20292;-87
2021/06/12 00:09:54;;;;;;;4.50;4.20;;;;;;;18.67;66.09;99522.22;4998542;28;20250;-86
2021/06/12 00:12:21;;;;;;;4.50;4.10;;;;;;;18.72;66.21;99525.75;5015342;28;20238;-85
2021/06/12 00:14:48;;;;;;;5.20;4.70;;;;;;;18.70;66.70;99519.00;4982549;28;20669;-86
2021/06/12 00:17:15;;;;;;;4.77;4.47;;;;;;;18.79;66.59;99520.88;5015246;28;20289;-84
2021/06/12 00:19:42;;;;;;;4.73;4.33;;;;;;;18.79;66.28;99520.06;4998282;28;20231;-84
2021/06/12 00:22:09;;;;;;;4.80;4.10;;;;;;;18.81;65.95;99515.97;5015354;28;20341;-85
2021/06/12 00:24:36;;;;;;;4.87;4.47;;;;;;;18.85;65.93;99518.94;4998010;28;20261;-87
2021/06/12 00:27:03;;;;;;;6.50;4.17;;;;;;;18.82;65.72;99508.63;4998489;28;20230;-86
2021/06/12 00:29:30;;;;;;;5.07;4.00;;;;;;;18.91;64.77;99523.25;4997834;28;20223;-87
2021/06/12 00:31:56;;;;;;;4.67;4.23;;;;;;;18.92;64.98;99514.84;4998589;28;20230;-85
2021/06/12 00:34:23;;;;;;;4.63;4.23;;;;;;;18.96;64.40;99522.44;4997782;28;20250;-86
2021/06/12 00:36:51;;;;;;;3.90;3.60;;;;;;;19.01;63.94;99508.84;5014236;28;20228;-86
2021/06/12 00:39:18;;;;;;;3.87;3.53;;;;;;;19.01;63.81;99509.66;4998441;28;20600;-85
2021/06/12 00:41:45;;;;;;;4.17;3.87;;;;;;;19.06;63.24;99506.09;4998056;28;20238;-86
2021/06/12 00:44:12;;;;;;;3.70;3.40;;;;;;;19.18;62.17;99515.53;4997316;28;20704;-83
2021/06/12 00:46:38;;;;;;;4.00;3.70;;;;;;;19.29;61.24;99516.31;4997985;28;20321;-87
2021/06/12 00:49:05;;;;;;;3.47;3.27;;;;;;;19.35;60.56;99512.50;4997859;28;20530;-86
2021/06/12 00:51:32;;;;;;;4.23;3.63;;;;;;;19.45;60.01;99517.91;4997812;28;20314;-84
2021/06/12 00:53:59;;;;;;;3.70;3.40;;;;;;;19.47;60.23;99506.75;5015388;28;20647;-83
2021/06/12 00:56:25;;;;;;;3.90;3.60;;;;;;;19.57;59.95;99514.84;4997232;28;20234;-81
2021/06/12 00:58:53;;;;;;;4.07;3.77;;;;;;;19.54;60.10;99510.78;4997892;28;20238;-86
2021/06/12 01:01:35;;;;;;;4.07;3.77;;;;;;;19.54;60.16;99509.97;5014394;28;20304;-84
2021/06/12 01:04:01;;;;;;;4.00;3.70;;;;;;;19.58;59.86;99511.84;4981029;28;20246;-83
2021/06/12 01:06:28;;;;;;;4.07;3.67;;;;;;;19.58;61.66;99508.31;5014387;28;20226;-87
2021/06/12 01:08:55;;;;;;;4.03;3.73;;;;;;;19.58;62.78;99517.28;4997457;28;20697;-85
2021/06/12 01:11:21;;;;;;;3.93;3.73;;;;;;;19.56;63.29;99518.66;4981661;28;20345;-87
2021/06/12 01:14:25;;;;;;;4.50;4.10;;;;;;;19.56;63.71;99519.47;5014128;28;20259;-84
2021/06/12 01:16:58;;;;;;;4.70;4.30;;;;;;;19.54;64.13;99523.56;4997682;28;20234;-85
2021/06/12 01:19:37;;;;;;;4.20;3.80;;;;;;;19.50;63.84;99511.63;4997996;28;20243;-84
2021/06/12 01:22:31;;;;;;;4.60;4.07;;;;;;;19.46;64.11;99513.25;4997320;28;20230;-86
2021/06/12 01:25:08;;;;;;;4.33;4.03;;;;;;;19.45;64.24;99515.19;4984594;28;20232;-84
2021/06/12 01:28:12;;;;;;;4.20;3.90;;;;;;;19.47;64.11;99514.91;4978512;28;20223;-87
2021/06/12 01:30:41;;;;;;;4.60;4.20;;;;;;;19.45;64.23;99506.22;4994932;28;20250;-85
2021/06/12 01:33:12;;;;;;;4.47;4.07;;;;;;;19.39;64.27;99512.75;5010325;28;20243;-86
2021/06/12 01:35:45;;;;;;;4.13;3.80;;;;;;;19.38;63.92;99502.97;4994107;28;20255;-81
2021/06/12 01:38:17;;;;;;;4.17;3.87;;;;;;;19.35;64.27;99491.56;4977535;28;20232;-85
2021/06/12 01:40:45;;;;;;;4.50;4.10;;;;;;;19.40;64.04;99506.22;4994101;28;20581;-85
2021/06/12 01:43:13;;;;;;;4.93;4.63;;;;;;;19.27;64.68;99496.78;5010390;28;20228;-86
2021/06/12 01:45:42;;;;;;;4.93;4.60;;;;;;;19.25;65.01;99497.06;4994090;28;20314;-80
2021/06/12 01:48:09;;;;;;;5.40;4.60;;;;;;;19.28;64.92;99503.81;4995944;28;20746;-84
2021/06/12 01:50:36;;;;;;;4.70;4.30;;;;;;;19.28;64.70;99498.38;5013875;28;20647;-86
2021/06/12 01:53:04;;;;;;;5.20;4.70;;;;;;;19.29;65.13;99495.41;4997726;28;20315;-87
2021/06/12 01:55:32;;;;;;;4.57;4.27;;;;;;;19.24;65.51;99483.75;4997671;28;20255;-86
2021/06/12 01:58:07;;;;;;;4.90;4.50;;;;;;;19.20;64.92;99488.13;5013908;28;20235;-84
2021/06/12 02:00:35;;;;;;;5.27;4.80;;;;;;;19.28;65.03;99498.38;4997319;28;20261;-86
2021/06/12 02:03:02;;;;;;;4.87;4.57;;;;;;;19.22;65.39;99503.03;4981653;28;20231;-86
2021/06/12 02:05:29;;;;;;;4.50;4.10;;;;;;;19.21;65.90;99501.44;4981224;28;20266;-85
2021/06/12 02:07:57;;;;;;;4.43;4.03;;;;;;;19.13;65.87;99493.06;4997843;28;20243;-86
2021/06/12 02:10:28;;;;;;;5.03;4.63;;;;;;;19.15;66.24;99494.38;5013028;28;20717;-87
2021/06/12 02:12:55;;;;;;;4.93;4.53;;;;;;;19.13;66.46;99502.00;5013688;28;20223;-87
2021/06/12 02:15:23;;;;;;;4.77;4.47;;;;;;;19.08;66.60;99490.38;4997335;28;20235;-86
2021/06/12 02:17:52;;;;;;;5.13;4.60;;;;;;;19.10;66.61;99499.84;4981262;28;20298;-87
2021/06/12 02:20:20;;;;;;;4.90;4.60;;;;;;;19.13;66.62;99502.00;4980913;28;20227;-86
2021/06/12 02:22:52;;;;;;;4.57;4.27;;;;;;;19.12;66.81;99500.38;4981333;28;20311;-86
2021/06/12 02:25:19;;;;;;;6.10;4.87;;;;;;;19.12;67.04;99503.09;4997003;28;20269;-81
2021/06/12 02:27:51;;;;;;;5.60;5.10;;;;;;;19.04;67.20;99487.38;4981125;28;20289;-87
2021/06/12 02:30:21;;;;;;;5.23;4.73;;;;;;;19.09;67.04;99500.94;4996915;28;20628;-81
2021/06/12 02:32:51;;;;;;;5.67;4.77;;;;;;;19.16;67.12;99497.91;4997408;28;20307;-84
2021/06/12 02:35:18;;;;;;;4.90;4.40;;;;;;;19.01;67.32;99487.94;4981191;28;20239;-84
2021/06/12 02:37:45;;;;;;;4.70;4.40;;;;;;;19.08;67.05;99493.91;5013233;28;20235;-83
2021/06/12 02:40:13;;;;;;;4.70;4.30;;;;;;;19.06;66.86;99496.06;5012713;28;20285;-83
2021/06/12 02:42:40;;;;;;;4.73;4.40;;;;;;;18.95;66.84;99485.50;4996820;28;20574;-84
2021/06/12 02:45:08;;;;;;;5.13;4.03;;;;;;;18.95;66.86;99485.50;4980866;28;20269;-82
2021/06/12 02:47:40;;;;;;;4.83;4.17;;;;;;;18.90;67.12;99483.63;5012941;28;20231;-87
2021/06/12 02:50:08;;;;;;;4.43;4.03;;;;;;;18.84;67.01;99480.13;5012452;28;20285;-86
2021/06/12 02:52:34;;;;;;;4.80;4.30;;;;;;;18.85;67.15;99475.50;5012937;28;20266;-86
2021/06/12 02:55:05;;;;;;;4.40;4.10;;;;;;;18.84;67.24;99472.00;4997762;28;20231;-84
2021/06/12 02:57:34;;;;;;;5.73;4.23;;;;;;;18.87;67.47;99481.47;4996758;28;20581;-85
2021/06/12 03:00:02;;;;;;;4.30;4.00;;;;;;;18.82;67.87;99485.03;4995879;28;20697;-80
2021/06/12 03:02:31;;;;;;;4.63;4.23;;;;;;;18.80;68.12;99481.75;4996453;28;20275;-88
2021/06/12 03:04:59;;;;;;;4.30;4.00;;;;;;;18.71;68.31;99477.19;4980325;28;20234;-85
2021/06/12 03:07:27;;;;;;;4.30;3.90;;;;;;;18.68;67.91;99472.31;4996574;28;20290;-86
2021/06/12 03:09:54;;;;;;;4.27;3.90;;;;;;;18.67;67.67;99470.69;4996091;28;20307;-85
2021/06/12 03:12:21;;;;;;;4.10;3.80;;;;;;;18.62;66.94;99473.41;4995842;28;20239;-82
2021/06/12 03:14:48;;;;;;;4.20;3.90;;;;;;;18.75;65.61;99478.28;4996411;28;20624;-86
2021/06/12 03:17:16;;;;;;;4.00;3.70;;;;;;;18.85;65.21;99484.47;5012669;28;20228;-83
2021/06/12 03:19:43;;;;;;;4.17;3.87;;;;;;;18.88;63.97;99478.50;4996226;28;20239;-84
2021/06/12 03:22:11;;;;;;;4.07;3.70;;;;;;;19.01;64.71;99487.94;4995898;28;20271;-84
2021/06/12 03:24:38;;;;;;;4.37;3.97;;;;;;;19.01;65.27;99471.66;4980675;28;20247;-87
2021/06/12 03:27:06;;;;;;;4.30;4.00;;;;;;;18.99;65.28;99471.09;5015329;28;20265;-85
2021/06/12 03:29:34;;;;;;;4.40;4.10;;;;;;;19.06;66.07;99478.94;4999321;28;20227;-87
2021/06/12 03:32:01;;;;;;;4.23;3.93;;;;;;;19.05;66.20;99480.03;5015120;28;20323;-81
2021/06/12 03:34:28;;;;;;;3.77;3.40;;;;;;;19.11;66.63;99478.94;4999290;28;20246;-84
2021/06/12 03:36:56;;;;;;;4.30;3.40;;;;;;;19.14;66.29;99490.03;4999083;28;20223;-85
2021/06/12 03:39:23;;;;;;;4.33;3.93;;;;;;;19.11;65.91;99470.78;4999244;28;20241;-84
2021/06/12 03:41:50;;;;;;;4.47;4.13;;;;;;;19.10;65.80;99466.44;5015243;28;20235;-87
2021/06/12 03:44:18;;;;;;;4.30;3.90;;;;;;;19.20;65.53;99477.25;4998561;28;20218;-84
2021/06/12 03:46:47;;;;;;;4.47;4.17;;;;;;;19.20;64.97;99467.22;4999110;28;20811;-87
2021/06/12 03:49:14;;;;;;;4.23;3.93;;;;;;;19.26;64.65;99474.25;5015008;28;20227;-83
2021/06/12 03:51:41;;;;;;;4.17;3.83;;;;;;;19.33;64.10;99463.06;4971946;28;20226;-83
2021/06/12 03:54:08;;;;;;;4.43;3.83;;;;;;;19.38;63.75;99462.22;5030566;28;20281;-86
2021/06/12 03:56:38;;;;;;;6.03;4.00;;;;;;;19.51;63.37;99461.59;4982598;28;20229;-83
2021/06/12 03:59:07;;;;;;;4.60;4.30;;;;;;;19.66;63.87;99477.81;4999154;28;20231;-82
2021/06/12 04:01:34;;;;;;;4.40;4.00;;;;;;;20.21;62.52;99477.38;4982512;28;20534;-84
2021/06/12 04:04:01;;;;;;;4.10;3.80;;;;;;;20.86;60.07;99455.19;4982786;28;20230;-78
2021/06/12 04:06:28;;;;;;;4.00;3.70;;;;;;;21.36;58.35;99462.75;4982647;28;20309;-84
2021/06/12 04:08:55;;;;;;;3.97;3.50;;;;;;;21.81;57.21;99463.97;4982573;28;20265;-86
2021/06/12 04:11:21;;;;;;;4.33;3.90;;;;;;;22.25;55.53;99449.09;4998087;28;20703;-81
2021/06/12 04:13:48;;;;;;;4.27;3.90;;;;;;;22.77;54.19;99454.09;4982659;28;20282;-82
2021/06/12 04:16:15;;;;;;;3.70;3.40;;;;;;;23.08;53.07;99470.69;4982095;28;20632;-86
2021/06/12 04:18:42;;;;;;;3.93;3.53;;;;;;;23.23;52.30;99448.50;4998124;28;20301;-85
2021/06/12 04:21:08;;;;;;;3.50;3.30;;;;;;;23.60;50.99;99457.53;4982005;28;20318;-83
2021/06/12 04:23:36;;;;;;;3.33;3.13;;;;;;;23.88;50.16;99453.56;5015620;28;20227;-84
2021/06/12 04:26:02;;;;;;;3.23;3.03;;;;;;;24.12;48.69;99464.97;4997530;28;20265;-82
2021/06/12 04:28:29;;;;;;;3.70;3.40;;;;;;;24.99;46.02;99479.94;4998081;28;20238;-82
2021/06/12 04:30:56;;;;;;;3.53;3.33;;;;;;;25.48;44.44;99519.06;5015533;28;20280;-84
2021/06/12 04:33:23;;;;;;;3.40;3.10;;;;;;;26.32;42.86;99557.88;4998386;28;20236;-83
2021/06/12 04:35:49;;;;;;;3.23;3.03;;;;;;;26.96;41.06;99539.50;4982157;28;20224;-84
2021/06/12 04:38:16;;;;;;;3.33;3.13;;;;;;;26.32;42.28;99481.00;4998197;28;20584;-80
2021/06/12 04:40:43;;;;;;;3.20;3.00;;;;;;;25.74;43.28;99473.31;4965980;28;20627;-85
2021/06/12 04:43:12;;;;;;;5.82;5.28;;;;;;;25.10;44.44;99466.75;4998352;28;20261;-83
2021/06/12 04:45:39;;;;;;;5.10;4.50;;;;;;;24.72;45.67;99460.97;4982440;28;20514;-84
2021/06/12 04:48:07;;;;;;;3.80;3.50;;;;;;;24.68;45.13;99469.03;4997927;28;20241;-81
2021/06/12 04:50:36;;;;;;;3.63;3.43;;;;;;;24.67;45.35;99475.63;4998339;28;20724;-81
2021/06/12 04:53:04;;;;;;;3.33;3.13;;;;;;;24.68;45.21;99473.69;4998392;28;20254;-83
2021/06/12 04:55:32;;;;;;;3.63;3.33;;;;;;;24.67;44.55;99459.19;4981956;28;20232;-84
2021/06/12 04:57:58;;;;;;;3.70;3.40;;;;;;;24.69;44.78;99462.41;4981945;28;20239;-82
2021/06/12 05:00:25;;;;;;;3.60;3.30;;;;;;;24.81;44.32;99467.28;4997524;28;20257;-83
2021/06/12 05:02:52;;;;;;;3.70;3.40;;;;;;;24.93;44.32;99476.53;4998188;28;20227;-82
2021/06/12 05:05:19;;;;;;;3.07;2.87;;;;;;;25.06;44.34;99477.53;4982018;28;20254;-81
2021/06/12 05:07:46;;;;;;;3.22;3.03;;;;;;;25.03;44.10;99480.94;4998162;28;20294;-85
2021/06/12 05:10:13;;;;;;;3.58;3.38;;;;;;;25.26;44.11;99473.41;4997413;28;20232;-83
2021/06/12 05:12:40;;;;;;;3.22;3.03;;;;;;;25.34;43.77;99465.19;4981797;28;20245;-82
2021/06/12 05:15:08;;;;;;;3.45;3.25;;;;;;;25.58;44.11;99486.69;4997778;28;20230;-84
2021/06/12 05:17:36;;;;;;;3.83;3.38;;;;;;;25.63;44.46;99485.72;4997893;28;20528;-85
2021/06/12 05:20:05;;;;;;;3.65;3.20;;;;;;;25.72;44.62;99483.78;4981557;28;20277;-84
2021/06/12 05:22:31;;;;;;;3.55;3.30;;;;;;;25.81;44.63;99477.16;4983421;28;20614;-82
2021/06/12 05:24:58;;;;;;;4.10;3.50;;;;;;;25.91;43.74;99473.28;4982393;28;20568;-84
2021/06/12 05:27:25;;;;;;;3.42;3.13;;;;;;;26.04;43.61;99482.47;4966220;28;20227;-84
2021/06/12 05:29:51;;;;;;;3.42;3.22;;;;;;;26.10;42.34;99487.47;4998421;28;20634;-84
2021/06/12 05:32:18;;;;;;;3.30;3.10;;;;;;;26.28;41.42;99480.84;4998006;28;20227;-79
2021/06/12 05:34:45;;;;;;;3.47;3.28;;;;;;;26.16;40.82;99477.94;4982105;28;20224;-85
2021/06/12 05:37:14;;;;;;;3.28;3.08;;;;;;;26.29;41.92;99487.97;4982229;28;20234;-84
2021/06/12 05:39:41;;;;;;;3.25;3.05;;;;;;;26.37;41.13;99480.81;4981722;28;20610;-83
2021/06/12 05:42:07;;;;;;;3.47;3.28;;;;;;;26.42;41.33;99475.16;4997193;28;20232;-85
2021/06/12 05:44:34;;;;;;;3.40;3.20;;;;;;;26.43;41.19;99484.19;4965248;28;20592;-84
2021/06/12 05:47:01;;;;;;;3.42;3.22;;;;;;;26.80;40.59;99483.41;4997610;28;20228;-84
2021/06/12 05:49:28;;;;;;;3.35;3.15;;;;;;;26.56;41.19;99478.50;4981579;28;20236;-84
2021/06/12 05:51:54;;;;;;;3.80;3.35;;;;;;;26.76;40.64;99484.41;4965725;28;20259;-82
2021/06/12 05:54:21;;;;;;;3.55;3.25;;;;;;;26.87;39.75;99483.75;4998274;28;20569;-84
2021/06/12 05:56:48;;;;;;;4.10;3.80;;;;;;;27.03;39.88;99479.28;4997754;28;20231;-84
2021/06/12 05:59:14;;;;;;;4.07;3.70;;;;;;;26.95;40.31;99485.66;4998517;28;20239;-85
2021/06/12 06:01:41;;;;;;;4.78;4.30;;;;;;;26.61;44.52;99481.06;4997339;28;20243;-84
2021/06/12 06:04:08;;;;;;;4.15;3.85;;;;;;;26.89;42.69;99483.41;4998121;28;20228;-86
2021/06/12 06:06:35;;;;;;;4.22;3.92;;;;;;;26.76;44.17;99478.91;4997294;28;20250;-84
2021/06/12 06:09:01;;;;;;;4.00;3.80;;;;;;;26.88;43.84;99482.59;4997012;28;20235;-81
2021/06/12 06:11:28;;;;;;;4.32;4.03;;;;;;;26.56;44.03;99477.69;4997382;28;20226;-83
2021/06/12 06:13:55;;;;;;;3.92;3.53;;;;;;;26.69;44.41;99479.41;4980887;28;20321;-84
2021/06/12 06:16:22;;;;;;;4.30;3.90;;;;;;;26.74;45.07;99474.53;4997212;28;20270;-84
2021/06/12 06:18:49;;;;;;;4.00;3.70;;;;;;;26.97;44.63;99488.06;4998064;28;20698;-79
2021/06/12 06:21:18;;;;;;;3.92;3.63;;;;;;;27.30;43.50;99472.47;4996890;28;20238;-84
2021/06/12 06:23:45;;;;;;;4.00;3.70;;;;;;;27.48;41.85;99473.19;4996354;28;20265;-82
2021/06/12 06:26:11;;;;;;;3.75;3.53;;;;;;;27.47;40.09;99455.06;4995613;28;20314;-83
2021/06/12 06:28:39;;;;;;;4.57;4.18;;;;;;;27.67;39.60;99468.03;4980625;28;20314;-83
2021/06/12 06:31:05;;;;;;;5.28;3.90;;;;;;;27.64;38.61;99465.97;4996828;28;20265;-84
2021/06/12 06:33:32;;;;;;;4.20;3.90;;;;;;;28.00;38.23;99457.84;4980634;28;20714;-83
2021/06/12 06:35:59;;;;;;;4.47;4.07;;;;;;;28.17;37.88;99469.88;4980718;28;20318;-82
2021/06/12 06:38:26;;;;;;;4.63;3.78;;;;;;;27.85;38.02;99457.69;4996404;28;20245;-83
2021/06/12 06:40:53;;;;;;;4.55;4.25;;;;;;;27.62;39.66;99470.19;4980328;28;20581;-82
2021/06/12 06:43:19;;;;;;;4.20;3.90;;;;;;;27.11;40.06;99474.88;4996579;28;20235;-83
2021/06/12 06:45:47;;;;;;;4.00;3.72;;;;;;;27.16;39.89;99470.00;4980600;28;20276;-84
2021/06/12 06:48:15;;;;;;;4.45;4.13;;;;;;;26.78;40.60;99479.41;4996401;28;20342;-82
2021/06/12 06:50:44;;;;;;;4.10;3.70;;;;;;;26.97;41.21;99479.81;4997184;28;20233;-81
2021/06/12 06:53:11;;;;;;;4.40;4.10;;;;;;;26.88;40.58;99468.03;4989251;28;20504;-84
2021/06/12 06:55:38;;;;;;;4.38;4.07;;;;;;;26.89;40.82;99473.22;4988138;28;20248;-82
2021/06/12 06:58:04;;;;;;;4.70;4.40;;;;;;;26.80;40.68;99477.13;5005392;28;20313;-83
2021/06/12 07:00:31;;;;;;;4.55;4.15;;;;;;;26.88;40.21;99468.03;5005515;28;20240;-83
2021/06/12 07:02:59;;;;;;;4.53;4.20;;;;;;;26.95;40.27;99468.34;5003964;28;20312;-83
2021/06/12 07:05:27;;;;;;;4.90;4.43;;;;;;;27.05;40.64;99454.22;5004382;28;20225;-81
2021/06/12 07:07:53;;;;;;;4.63;4.32;;;;;;;27.35;39.93;99463.22;5005449;28;20244;-81
2021/06/12 07:10:20;;;;;;;4.60;4.30;;;;;;;27.22;39.89;99473.34;4987261;28;20316;-81
2021/06/12 07:12:47;;;;;;;4.78;4.38;;;;;;;27.20;39.91;99469.34;5004172;28;20634;-82
2021/06/12 07:15:14;;;;;;;4.45;4.10;;;;;;;27.36;40.02;99476.66;5005336;28;20219;-80
2021/06/12 07:17:41;;;;;;;4.82;4.43;;;;;;;27.44;39.60;99464.78;4987869;28;20316;-84
2021/06/12 07:20:08;;;;;;;5.07;4.68;;;;;;;27.62;39.59;99465.50;4987207;28;20238;-83
2021/06/12 07:22:35;;;;;;;5.20;4.70;;;;;;;27.54;39.50;99474.63;5005313;28;20308;-83
2021/06/12 07:25:03;;;;;;;5.10;4.70;;;;;;;27.65;39.79;99469.53;5003712;28;20254;-83
2021/06/12 07:27:30;;;;;;;4.95;4.65;;;;;;;27.86;39.09;99475.81;4987540;28;20252;-83
2021/06/12 07:29:56;;;;;;;4.93;4.63;;;;;;;27.84;39.04;99469.84;5005184;28;20360;-82
2021/06/12 07:32:24;;;;;;;5.25;4.85;;;;;;;27.76;38.70;99459.72;4987500;28;20231;-85
2021/06/12 07:34:51;;;;;;;5.07;4.68;;;;;;;28.09;38.52;99470.75;4986844;28;20224;-81
2021/06/12 07:37:21;;;;;;;5.13;4.72;;;;;;;28.17;38.06;99462.44;5005699;28;20300;-83
2021/06/12 07:39:47;;;;;;;4.88;4.50;;;;;;;28.22;38.50;99458.66;5004226;28;20233;-83
2021/06/12 07:42:14;;;;;;;5.28;4.82;;;;;;;28.40;38.20;99457.31;4994314;28;20562;-80
2021/06/12 07:44:43;;;;;;;5.30;4.90;;;;;;;28.43;38.55;99462.13;4987787;28;20248;-85
2021/06/12 07:47:10;;;;;;;5.10;4.75;;;;;;;28.41;38.13;99464.44;4988299;28;20300;-83
2021/06/12 07:49:37;;;;;;;5.30;4.90;;;;;;;28.37;38.58;99471.75;4986393;28;20342;-82
2021/06/12 07:52:04;;;;;;;5.43;5.03;;;;;;;28.55;38.42;99470.44;5003616;28;20229;-84
2021/06/12 07:54:31;;;;;;;5.28;4.88;;;;;;;28.57;37.31;99470.06;5005657;28;20334;-84
2021/06/12 07:56:57;;;;;;;5.55;5.15;;;;;;;28.54;37.90;99460.56;4986675;28;20222;-84
2021/06/12 07:59:24;;;;;;;5.90;5.43;;;;;;;28.59;37.17;99459.53;5005213;28;20311;-84
2021/06/12 08:01:51;;;;;;;5.90;5.30;;;;;;;28.67;38.06;99462.16;5004281;28;20227;-83
2021/06/12 08:04:17;;;;;;;5.72;5.22;;;;;;;28.24;37.65;99459.91;4988337;28;20225;-84
2021/06/12 08:06:44;;;;;;;6.05;5.55;;;;;;;28.36;37.06;99457.19;5003622;28;20244;-83
2021/06/12 08:09:11;;;;;;;5.50;5.10;;;;;;;28.29;37.51;99447.88;4986519;28;20271;-85
2021/06/12 08:11:38;;;;;;;6.00;5.50;;;;;;;28.40;38.16;99443.53;5004471;28;20288;-83
2021/06/12 08:14:04;;;;;;;6.00;5.60;;;;;;;28.70;37.07;99458.72;4986719;28;20316;-83
2021/06/12 08:16:31;;;;;;;5.97;5.43;;;;;;;28.37;36.75;99452.47;4986270;28;20729;-82
2021/06/12 08:18:58;;;;;;;5.60;5.10;;;;;;;28.45;36.32;99452.38;5004243;28;20232;-83
2021/06/12 08:21:25;;;;;;;5.47;5.10;;;;;;;28.58;36.64;99455.16;4993644;28;20234;-85
2021/06/12 08:23:52;;;;;;;5.75;5.32;;;;;;;28.51;37.35;99444.69;5002273;28;20236;-84
2021/06/12 08:26:19;;;;;;;5.43;4.93;;;;;;;28.81;37.40;99446.13;5002033;28;20526;-84
2021/06/12 08:28:46;;;;;;;5.53;5.10;;;;;;;28.97;36.98;99435.22;5003194;28;20276;-83
2021/06/12 08:31:13;;;;;;;5.30;4.90;;;;;;;29.24;38.01;99456.56;4979133;28;20241;-83
2021/06/12 08:33:40;;;;;;;5.47;5.00;;;;;;;29.52;36.30;99455.81;5002447;28;20258;-83
2021/06/12 08:36:07;;;;;;;4.85;4.45;;;;;;;29.65;36.23;99449.91;5004626;28;20284;-83
2021/06/12 08:38:34;;;;;;;5.60;5.10;;;;;;;29.69;35.61;99453.59;4985555;28;20580;-84
2021/06/12 08:41:00;;;;;;;5.13;4.72;;;;;;;29.95;35.00;99455.94;4987418;28;20309;-85
2021/06/12 08:43:30;;;;;;;5.53;5.10;;;;;;;29.97;33.88;99447.28;4986403;28;20522;-82
2021/06/12 08:45:59;;;;;;;5.18;4.88;;;;;;;30.25;34.25;99467.41;4982559;28;20279;-84
2021/06/12 08:48:27;;;;;;;5.57;5.18;;;;;;;30.04;34.78;99462.09;4983602;28;20325;-82
2021/06/12 08:50:55;;;;;;;5.75;5.28;;;;;;;30.04;34.32;99451.06;4985095;28;20649;-85
2021/06/12 08:53:22;;;;;;;5.90;5.40;;;;;;;30.22;34.67;99462.59;4987176;28;20250;-84
2021/06/12 08:55:49;;;;;;;4.82;4.53;;;;;;;30.26;35.00;99449.66;4987024;28;20277;-81
2021/06/12 08:58:16;;;;;;;5.72;5.20;;;;;;;30.76;34.51;99448.19;5001095;28;20235;-84
2021/06/12 09:00:43;;;;;;;5.75;5.25;;;;;;;30.99;33.24;99446.38;4967865;28;20404;-84
2021/06/12 09:03:25;;;;;;;5.45;4.97;;;;;;;31.08;32.76;99452.53;5001554;28;20542;-84
2021/06/12 09:05:59;;;;;;;5.60;5.18;;;;;;;30.92;32.72;99452.56;5002845;28;20227;-84
2021/06/12 09:08:28;;;;;;;4.63;4.32;;;;;;;31.33;32.04;99456.69;5002046;28;20230;-83
2021/06/12 09:11:05;;;;;;;4.65;4.35;;;;;;;31.26;31.20;99444.66;4996957;28;20242;-83
2021/06/12 09:13:42;;;;;;;5.45;4.95;;;;;;;30.93;31.30;99451.41;4978176;28;20306;-82
2021/06/12 09:16:32;;;;;;;4.50;4.20;;;;;;;32.18;29.98;99452.94;4994807;28;20623;-85
2021/06/12 09:19:14;;;;;;;4.95;4.53;;;;;;;31.98;31.00;99442.22;4993815;28;20231;-80
2021/06/12 09:21:43;;;;;;;4.95;4.65;;;;;;;32.37;30.08;99427.16;4993845;28;20228;-81
2021/06/12 09:24:21;;;;;;;4.70;4.40;;;;;;;32.45;29.22;99439.16;4992407;28;20653;-80
2021/06/12 09:26:59;;;;;;;4.85;4.50;;;;;;;31.96;29.22;99441.81;4992500;28;20707;-85
2021/06/12 09:29:37;;;;;;;4.68;4.28;;;;;;;32.38;28.74;99447.38;4976179;28;20322;-81
2021/06/12 09:32:26;;;;;;;4.57;4.28;;;;;;;32.46;28.92;99436.03;4993042;28;20262;-80
2021/06/12 09:35:03;;;;;;;4.93;4.55;;;;;;;32.63;29.26;99430.00;4961435;28;20538;-80
2021/06/12 09:37:31;;;;;;;4.63;4.32;;;;;;;32.70;28.56;99432.91;4977147;28;20674;-83
2021/06/12 09:40:07;;;;;;;5.07;4.57;;;;;;;32.58;29.08;99418.38;4993336;28;20227;-80
2021/06/12 09:42:47;;;;;;;5.03;4.72;;;;;;;32.29;30.17;99428.97;4976927;28;20227;-85
2021/06/12 09:45:16;;;;;;;5.43;4.70;;;;;;;32.92;29.72;99436.81;4977382;28;20227;-80
2021/06/12 09:47:44;;;;;;;5.45;4.93;;;;;;;32.75;29.57;99437.34;4977123;28;20235;-80
2021/06/12 09:50:13;;;;;;;7.07;4.30;;;;;;;32.83;29.94;99427.94;4992890;28;20231;-85
2021/06/12 09:52:48;;;;;;;4.72;4.35;;;;;;;32.51;29.42;99430.19;4992994;28;20293;-85
2021/06/12 09:55:22;;;;;;;4.63;4.32;;;;;;;32.81;28.50;99419.19;4977337;28;20291;-82
2021/06/12 09:57:51;;;;;;;4.50;4.15;;;;;;;33.39;28.86;99416.88;4993331;28;20278;-83
2021/06/12 10:00:29;;;;;;;4.43;4.03;;;;;;;33.06;28.11;99416.78;4992826;28;20238;-85
2021/06/12 10:02:56;;;;;;;4.68;4.38;;;;;;;33.04;28.34;99413.56;4977335;28;20223;-81
2021/06/12 10:05:25;;;;;;;4.13;3.78;;;;;;;32.86;27.69;99406.97;4977054;28;20338;-84
2021/06/12 10:07:53;;;;;;;4.32;4.03;;;;;;;33.18;28.06;99416.59;4977557;28;20282;-85
2021/06/12 10:10:20;;;;;;;3.90;3.60;;;;;;;33.51;27.91;99408.31;4996280;28;20321;-85
2021/06/12 10:12:47;;;;;;;4.45;4.00;;;;;;;33.34;27.07;99414.44;4980553;28;20305;-80
2021/06/12 10:15:15;;;;;;;4.10;3.88;;;;;;;33.54;27.39;99412.31;4980734;28;20282;-80
2021/06/12 10:17:52;;;;;;;4.43;3.97;;;;;;;33.03;28.17;99406.44;4980819;28;20230;-85
2021/06/12 10:20:22;;;;;;;4.18;3.88;;;;;;;33.20;28.02;99417.03;4980485;28;20627;-84
2021/06/12 10:22:51;;;;;;;3.67;3.42;;;;;;;33.41;27.74;99408.19;4997392;28;20593;-80
2021/06/12 10:25:20;;;;;;;4.97;4.05;;;;;;;33.65;27.63;99410.47;4980489;28;20247;-81
2021/06/12 10:27:47;;;;;;;4.60;4.30;;;;;;;34.01;27.20;99404.16;4980268;28;20251;-81
2021/06/12 10:30:18;;;;;;;4.03;3.72;;;;;;;33.92;27.58;99403.66;4995915;28;20239;-82
2021/06/12 10:32:50;;;;;;;4.20;3.75;;;;;;;33.25;28.33;99402.81;4980173;28;20314;-85
2021/06/12 10:35:22;;;;;;;4.13;3.83;;;;;;;32.81;28.40;99401.72;4996210;28;20258;-84
2021/06/12 10:38:13;;;;;;;4.28;3.88;;;;;;;32.82;29.09;99393.03;4980109;28;20600;-84
2021/06/12 10:40:46;;;;;;;4.15;3.72;;;;;;;32.69;29.31;99399.97;4980426;28;20342;-85
2021/06/12 10:43:15;;;;;;;4.60;4.25;;;;;;;32.88;29.64;99407.41;4996020;28;20298;-86
2021/06/12 10:45:45;;;;;;;4.30;4.10;;;;;;;32.81;29.61;99393.41;4996201;28;20310;-84
2021/06/12 10:48:41;;;;;;;4.78;3.95;;;;;;;32.59;29.91;99398.59;4979571;28;20242;-81
2021/06/12 10:51:10;;;;;;;4.45;4.15;;;;;;;32.88;29.69;99402.66;4990541;28;20266;-84
2021/06/12 10:53:38;;;;;;;4.30;4.10;;;;;;;32.52;29.71;99381.06;4979569;28;20242;-80
2021/06/12 10:56:07;;;;;;;4.90;4.43;;;;;;;32.79;30.11;99379.94;4979528;28;20263;-82
2021/06/12 10:58:45;;;;;;;4.10;3.80;;;;;;;32.70;29.27;99377.44;4995943;28;20231;-84
2021/06/12 11:01:20;;;;;;;3.90;3.60;;;;;;;33.02;28.17;99368.78;4995543;28;20644;-80
2021/06/12 11:04:04;;;;;;;4.30;4.00;;;;;;;33.38;28.51;99370.06;4996723;28;20602;-85
2021/06/12 11:06:49;;;;;;;4.72;4.32;;;;;;;33.80;27.35;99369.78;5004412;28;20223;-80
2021/06/12 11:09:20;;;;;;;4.65;4.35;;;;;;;34.31;26.89;99369.91;5015025;28;20280;-80
2021/06/12 11:11:48;;;;;;;4.28;3.97;;;;;;;34.03;26.64;99365.66;5015665;28;20892;-84
2021/06/12 11:14:21;;;;;;;4.63;4.32;;;;;;;33.00;28.58;99360.00;4999339;28;20522;-80
2021/06/12 11:17:08;;;;;;;4.38;4.07;;;;;;;32.91;29.01;99362.25;5015787;28;20646;-84
2021/06/12 11:19:55;;;;;;;4.68;4.38;;;;;;;32.77;29.08;99354.53;5015752;28;20234;-84
2021/06/12 11:22:32;;;;;;;4.50;4.20;;;;;;;32.71;28.11;99348.50;5015185;28;20231;-85
2021/06/12 11:25:08;;;;;;;4.38;4.07;;;;;;;33.54;28.26;99345.66;5015370;28;20238;-81
2021/06/12 11:27:39;;;;;;;5.38;5.07;;;;;;;33.62;28.84;99344.56;5015433;28;20240;-85
2021/06/12 11:30:33;;;;;;;4.78;4.47;;;;;;;33.70;28.09;99332.38;4999017;28;20257;-83
2021/06/12 11:33:00;;;;;;;5.05;4.68;;;;;;;34.50;27.99;99347.41;5013879;28;20242;-84
2021/06/12 11:35:59;;;;;;;5.25;4.78;;;;;;;34.42;28.04;99343.00;5013641;28;20250;-84
2021/06/12 11:38:31;;;;;;;4.82;4.53;;;;;;;34.67;27.25;99346.75;5014573;28;20242;-83
2021/06/12 11:41:07;;;;;;;4.85;4.53;;;;;;;34.60;26.28;99343.13;4999168;28;20223;-85
2021/06/12 11:43:42;;;;;;;5.05;4.22;;;;;;;34.26;26.24;99339.66;5015338;28;20223;-81